createdAt,value
2023-01-08T00:01:08.142Z,96.03
2023-01-08T00:03:36.229Z,87.45
2023-01-08T00:06:04.861Z,99.90
2023-01-08T00:08:32.088Z,86.20
2023-01-08T00:10:59.922Z,94.37
2023-01-08T00:13:27.557Z,90.17
2023-01-08T00:15:54.886Z,92.13
2023-01-08T00:18:21.895Z,89.27
2023-01-08T00:20:48.907Z,86.57
2023-01-08T00:23:20.383Z,85.73
2023-01-08T00:25:47.373Z,82.73
2023-01-08T00:28:15.548Z,78.07
2023-01-08T00:30:43.292Z,70.00
2023-01-08T00:33:11.635Z,71.17
2023-01-08T00:35:39.682Z,56.97
2023-01-08T00:38:09.450Z,64.90
2023-01-08T00:40:36.673Z,54.63
2023-01-08T00:43:03.630Z,60.43
2023-01-08T00:45:30.764Z,54.90
2023-01-08T00:47:57.921Z,65.40
2023-01-08T00:50:25.786Z,73.43
2023-01-08T00:52:52.813Z,73.10
2023-01-08T00:55:19.693Z,72.17
2023-01-08T00:57:46.613Z,73.87
2023-01-08T01:00:15.164Z,70.63
2023-01-08T01:02:42.575Z,69.93
2023-01-08T01:05:10.986Z,68.63
2023-01-08T01:07:38.147Z,70.33
2023-01-08T01:10:11.638Z,66.63
2023-01-08T01:12:39.417Z,62.67
2023-01-08T01:15:11.417Z,57.65
2023-01-08T01:20:24.879Z,58.40
2023-01-08T01:22:52.045Z,62.33
2023-01-08T01:25:19.232Z,64.37
2023-01-08T01:27:46.201Z,65.33
2023-01-08T01:30:13.258Z,64.87
2023-01-08T01:32:40.154Z,67.87
2023-01-08T01:35:07.388Z,65.50
2023-01-08T01:37:34.917Z,73.47
2023-01-08T01:40:02.023Z,69.43
2023-01-08T01:42:42.093Z,77.17
2023-01-08T01:45:22.686Z,81.90
2023-01-08T01:47:55.611Z,80.47
2023-01-08T01:50:33.489Z,78.70
2023-01-08T01:53:17.939Z,76.17
2023-01-08T01:55:46.229Z,77.60
2023-01-08T01:58:19.093Z,88.07
2023-01-08T02:00:46.881Z,85.93
2023-01-08T02:03:16.060Z,85.37
2023-01-08T02:06:01.133Z,78.35
2023-01-08T02:08:49.301Z,78.13
2023-01-08T02:11:31.704Z,70.47
2023-01-08T02:14:23.095Z,73.37
2023-01-08T02:17:06.823Z,68.93
2023-01-08T02:19:44.880Z,70.27
2023-01-08T02:22:11.752Z,68.07
2023-01-08T02:25:08.751Z,64.50
2023-01-08T02:27:38.145Z,60.40
2023-01-08T02:30:06.351Z,61.33
2023-01-08T02:32:36.943Z,56.47
2023-01-08T02:35:05.088Z,55.43
2023-01-08T02:37:32.076Z,55.23
2023-01-08T02:40:18.072Z,51.20
2023-01-08T02:42:51.057Z,50.87
2023-01-08T02:45:47.853Z,47.17
2023-01-08T02:48:22.352Z,47.23
2023-01-08T02:51:00.769Z,46.43
2023-01-08T02:53:31.722Z,51.17
2023-01-08T02:56:03.450Z,49.47
2023-01-08T04:14:48.214Z,46.77
2023-01-08T04:17:15.179Z,45.70
2023-01-08T04:19:41.959Z,46.63
2023-01-08T04:22:12.518Z,46.40
2023-01-08T04:24:39.356Z,44.57
2023-01-08T04:27:06.352Z,45.73
2023-01-08T04:29:33.198Z,46.23
2023-01-08T04:32:00.938Z,46.53
2023-01-08T06:42:28.037Z,62.60
2023-01-08T06:44:55.561Z,65.93
2023-01-08T06:47:24.437Z,63.93
2023-01-08T06:49:52.261Z,52.53
2023-01-08T06:52:19.205Z,53.10
2023-01-08T06:54:46.338Z,55.73
2023-01-08T06:57:13.399Z,59.30
2023-01-08T06:59:40.248Z,58.43
2023-01-08T07:02:07.225Z,62.43
2023-01-08T07:04:34.948Z,61.33
2023-01-08T07:07:01.865Z,63.60
2023-01-08T07:31:15.962Z,40.43
2023-01-08T07:33:43.005Z,31.93
2023-01-08T07:36:10.006Z,32.83
2023-01-08T07:38:37.008Z,31.90
2023-01-08T07:41:04.767Z,31.23
2023-01-08T07:43:32.021Z,32.17
2023-01-08T07:46:01.759Z,33.67
2023-01-08T07:48:28.667Z,32.00
2023-01-08T07:51:01.407Z,33.10
2023-01-08T07:53:28.395Z,32.73
2023-01-08T07:56:06.716Z,32.73
2023-01-08T07:58:34.189Z,34.00
2023-01-08T08:01:01.870Z,31.47
2023-01-08T08:03:28.899Z,34.77
2023-01-08T08:05:55.842Z,35.17
2023-01-08T08:08:22.685Z,37.77
2023-01-08T08:10:49.563Z,37.57
2023-01-08T08:13:16.586Z,37.17
2023-01-08T08:15:43.532Z,36.20
2023-01-08T08:18:10.740Z,39.50
2023-01-08T08:20:38.436Z,38.77
2023-01-08T08:23:13.215Z,40.03
2023-01-08T08:25:41.036Z,39.43
2023-01-08T08:28:11.031Z,38.57
2023-01-08T08:30:41.998Z,38.87
2023-01-08T08:33:09.814Z,35.20
2023-01-08T08:35:37.323Z,37.50
2023-01-08T08:38:05.199Z,32.73
2023-01-08T08:40:32.219Z,32.47
2023-01-08T08:43:01.023Z,33.80
2023-01-08T08:45:28.380Z,33.92
2023-01-08T08:47:55.618Z,32.87
2023-01-08T08:50:23.184Z,35.63
2023-01-08T08:52:51.563Z,33.93
2023-01-08T08:55:19.035Z,31.03
2023-01-08T08:57:47.239Z,31.63
2023-01-08T09:00:15.521Z,32.77
2023-01-08T09:02:42.807Z,30.80
2023-01-08T09:05:10.252Z,30.90
2023-01-08T09:07:38.371Z,32.23
2023-01-08T09:10:06.300Z,28.20
2023-01-08T09:12:33.329Z,29.83
2023-01-08T09:15:00.266Z,31.10
2023-01-08T09:17:27.485Z,30.83
2023-01-08T09:19:54.447Z,32.90
2023-01-08T09:22:21.402Z,28.67
2023-01-08T09:24:48.535Z,31.80
2023-01-08T09:27:15.993Z,30.40
2023-01-08T09:29:43.096Z,32.60
2023-01-08T09:32:10.001Z,31.53
2023-01-08T09:34:36.985Z,34.27
2023-01-08T09:37:04.848Z,31.53
2023-01-08T09:39:32.148Z,32.77
2023-01-08T09:42:02.537Z,31.93
2023-01-08T09:44:36.182Z,33.07
2023-01-08T09:47:03.632Z,32.47
2023-01-08T09:49:41.058Z,30.37
2023-01-08T09:52:13.195Z,30.97
2023-01-08T09:54:40.921Z,29.52
2023-01-08T09:57:18.094Z,31.07
2023-01-08T09:59:48.379Z,29.88
2023-01-08T10:02:24.064Z,31.27
2023-01-08T10:04:57.726Z,31.80
2023-01-08T10:07:26.689Z,31.77
2023-01-08T10:09:54.749Z,32.13
2023-01-08T10:12:28.885Z,32.10
2023-01-08T10:15:00.520Z,31.10
2023-01-08T10:17:30.964Z,30.48
2023-01-08T10:19:57.944Z,31.50
2023-01-08T10:22:28.911Z,30.58
2023-01-08T10:25:08.860Z,31.98
2023-01-08T10:27:52.883Z,32.05
2023-01-08T10:30:40.169Z,31.80
2023-01-08T10:33:13.335Z,28.90
2023-01-08T10:35:43.627Z,32.35
2023-01-08T10:38:49.761Z,30.02
2023-01-08T10:41:18.667Z,28.42
2023-01-08T10:44:07.702Z,29.77
2023-01-08T10:46:43.944Z,28.95
2023-01-08T10:49:29.923Z,26.13
2023-01-08T10:51:56.896Z,28.25
2023-01-08T10:54:44.202Z,26.75
2023-01-08T10:57:31.030Z,27.92
2023-01-08T10:59:57.934Z,28.17
2023-01-08T11:02:38.406Z,27.67
2023-01-08T11:05:08.926Z,27.63
2023-01-08T11:07:36.085Z,27.55
2023-01-08T11:10:05.242Z,29.42
2023-01-08T11:12:41.915Z,27.45
2023-01-08T11:15:38.084Z,26.85
2023-01-08T11:18:21.608Z,27.58
2023-01-08T11:20:49.713Z,26.15
2023-01-08T11:23:24.058Z,25.70
2023-01-08T11:26:11.586Z,26.60
2023-01-08T11:29:00.183Z,27.58
2023-01-08T11:31:48.700Z,26.67
2023-01-08T11:34:28.278Z,27.52
2023-01-08T11:37:04.798Z,25.20
2023-01-08T11:39:39.095Z,26.58
2023-01-08T11:42:21.260Z,27.80
2023-01-08T11:44:57.689Z,25.60
2023-01-08T11:47:32.128Z,24.67
2023-01-08T11:50:23.639Z,26.00
2023-01-08T11:53:00.880Z,25.77
2023-01-08T11:55:57.575Z,27.77
2023-01-08T11:58:52.745Z,26.00
2023-01-08T12:01:24.940Z,26.30
2023-01-08T12:04:19.598Z,26.75
2023-01-08T12:07:01.820Z,22.10
2023-01-08T12:09:47.094Z,24.48
2023-01-08T12:12:27.683Z,26.60
2023-01-08T12:15:05.818Z,25.17
2023-01-08T12:17:49.558Z,25.63
2023-01-08T12:20:45.741Z,20.98
2023-01-08T12:23:34.575Z,26.35
2023-01-08T12:26:12.633Z,23.77
2023-01-08T12:28:45.580Z,24.35
2023-01-08T12:31:33.794Z,36.97
2023-01-08T12:34:10.837Z,30.13
2023-01-08T12:36:44.507Z,26.15
2023-01-08T12:39:28.064Z,25.52
2023-01-08T12:41:59.441Z,23.15
2023-01-08T12:44:29.411Z,30.77
2023-01-08T12:46:59.039Z,30.15
2023-01-08T12:49:38.347Z,28.75
2023-01-08T12:52:16.872Z,23.48
2023-01-08T12:54:53.484Z,23.67
2023-01-08T12:57:31.986Z,21.40
2023-01-08T13:00:12.842Z,22.38
2023-01-08T13:02:48.540Z,23.58
2023-01-08T13:05:18.487Z,23.90
2023-01-08T13:07:48.209Z,23.27
2023-01-08T13:11:00.282Z,22.48
2023-01-08T13:13:32.177Z,23.60
2023-01-08T13:16:08.294Z,23.40
2023-01-08T13:18:36.284Z,22.08
2023-01-08T13:21:05.346Z,22.63
2023-01-08T13:23:35.621Z,21.67
2023-01-08T13:26:05.971Z,21.63
2023-01-08T13:28:35.458Z,21.63
2023-01-08T13:31:20.292Z,21.83
2023-01-08T13:33:49.347Z,21.65
2023-01-08T13:36:21.122Z,23.05
2023-01-08T13:39:01.988Z,22.33
2023-01-08T13:41:38.976Z,22.13
2023-01-08T13:44:16.533Z,21.98
2023-01-08T13:46:44.401Z,21.23
2023-01-08T13:49:27.569Z,20.95
2023-01-08T13:51:55.281Z,21.45
2023-01-08T13:54:39.537Z,19.45
2023-01-08T13:57:13.679Z,21.55
2023-01-08T14:00:05.034Z,21.33
2023-01-08T14:02:55.292Z,19.05
2023-01-08T14:05:28.960Z,23.33
2023-01-08T14:07:57.040Z,21.77
2023-01-08T14:10:25.594Z,21.70
2023-01-08T14:12:53.070Z,21.95
2023-01-08T14:15:26.659Z,21.75
2023-01-08T14:17:55.583Z,38.50
2023-01-08T14:20:43.912Z,29.33
2023-01-08T14:23:13.665Z,22.92
2023-01-08T14:25:41.908Z,23.67
2023-01-08T14:28:17.803Z,24.08
2023-01-08T14:30:53.372Z,22.60
2023-01-08T14:33:24.904Z,23.98
2023-01-08T14:35:52.440Z,24.58
2023-01-08T14:38:19.402Z,23.52
2023-01-08T14:40:52.056Z,32.72
2023-01-08T14:43:21.913Z,37.63
2023-01-08T14:45:52.563Z,39.00
2023-01-08T14:48:29.798Z,26.23
2023-01-08T14:51:20.826Z,23.45
2023-01-08T14:53:51.683Z,24.17
2023-01-08T14:56:24.462Z,25.58
2023-01-08T14:58:51.674Z,24.85
2023-01-08T15:01:25.449Z,25.17
2023-01-08T15:04:03.989Z,25.73
2023-01-08T15:06:32.459Z,26.67
2023-01-08T15:09:13.872Z,22.92
2023-01-08T15:11:59.738Z,24.73
2023-01-08T15:14:47.823Z,22.77
2023-01-08T15:17:25.300Z,22.80
2023-01-08T15:19:56.393Z,23.40
2023-01-08T15:22:26.311Z,24.03
2023-01-08T15:25:01.679Z,23.37
2023-01-08T15:27:31.512Z,23.57
2023-01-08T15:30:03.773Z,25.37
2023-01-08T15:32:39.282Z,24.67
2023-01-08T15:35:17.964Z,24.80
2023-01-08T15:37:44.971Z,29.00
2023-01-08T15:40:12.928Z,29.57
2023-01-08T15:42:58.672Z,28.23
2023-01-08T15:45:30.104Z,29.23
2023-01-08T15:47:56.930Z,27.60
2023-01-08T15:50:26.496Z,33.37
2023-01-08T15:52:56.539Z,32.23
2023-01-08T15:55:24.899Z,34.83
2023-01-08T15:57:51.922Z,38.40
2023-01-08T16:00:20.433Z,35.87
2023-01-08T16:02:49.350Z,35.90
2023-01-08T16:05:17.894Z,36.03
2023-01-08T16:07:47.613Z,34.72
2023-01-08T16:10:15.684Z,32.93
2023-01-08T16:12:43.756Z,32.37
2023-01-08T16:15:11.921Z,34.30
2023-01-08T16:17:39.412Z,34.07
2023-01-08T16:20:07.887Z,33.33
2023-01-08T16:22:35.081Z,31.17
2023-01-08T16:25:01.984Z,30.17
2023-01-08T16:27:31.472Z,35.47
2023-01-08T16:32:25.201Z,30.53
2023-01-08T16:34:52.305Z,29.73
2023-01-08T16:37:19.250Z,31.33
2023-01-08T16:39:46.059Z,28.23
2023-01-08T16:42:13.125Z,27.40
2023-01-08T16:44:40.183Z,27.17
2023-01-08T16:47:07.199Z,27.97
2023-01-08T16:49:36.120Z,27.90
2023-01-08T16:52:03.165Z,39.30
2023-01-08T16:54:30.123Z,45.10
2023-01-08T16:56:57.005Z,38.43
2023-01-08T16:59:25.314Z,32.37
2023-01-08T17:01:53.351Z,33.50
2023-01-08T17:04:20.742Z,31.43
2023-01-08T17:06:47.759Z,32.77
2023-01-08T17:09:15.142Z,32.57
2023-01-08T17:11:42.445Z,33.40
2023-01-08T17:14:10.759Z,38.20
2023-01-08T17:16:39.626Z,36.87
2023-01-08T17:19:06.687Z,35.88
2023-01-08T17:21:33.930Z,41.77
2023-01-08T17:24:03.056Z,48.17
2023-01-08T17:26:31.250Z,51.93
2023-01-08T17:28:58.251Z,59.00
2023-01-08T17:31:25.433Z,59.17
2023-01-08T17:33:52.465Z,62.93
2023-01-08T17:36:22.793Z,60.67
2023-01-08T17:38:50.856Z,65.00
2023-01-08T17:41:37.356Z,61.67
2023-01-08T17:44:07.104Z,64.80
2023-01-08T17:46:42.291Z,67.87
2023-01-08T17:49:11.459Z,66.33
2023-01-08T17:51:41.011Z,85.63
2023-01-08T17:54:17.211Z,68.45
2023-01-08T17:56:44.505Z,88.90
2023-01-08T17:59:16.868Z,111.57
2023-01-08T18:01:45.450Z,111.17
2023-01-08T18:04:13.468Z,102.10
2023-01-08T18:06:41.274Z,121.13
2023-01-08T18:09:10.136Z,115.77
2023-01-08T18:11:36.967Z,129.68
2023-01-08T18:14:03.795Z,114.50
2023-01-08T18:16:32.103Z,114.37
2023-01-08T18:19:00.230Z,113.20
2023-01-08T18:21:28.386Z,117.10
2023-01-08T18:23:55.437Z,134.63
2023-01-08T18:26:23.175Z,116.43
2023-01-08T18:28:52.063Z,126.57
2023-01-08T18:31:19.140Z,130.60
2023-01-08T18:33:48.938Z,126.13
2023-01-08T18:36:15.784Z,120.47
2023-01-08T18:38:43.931Z,137.40
2023-01-08T18:41:36.417Z,145.00
2023-01-08T18:44:05.845Z,131.03
2023-01-08T18:48:59.606Z,147.87
2023-01-08T18:51:26.660Z,141.90
2023-01-08T18:53:54.443Z,133.87
2023-01-08T18:56:24.329Z,136.20
2023-01-08T18:58:51.159Z,126.57
2023-01-08T19:01:18.231Z,123.87
2023-01-08T19:03:55.927Z,102.62
2023-01-08T19:06:23.539Z,121.47
2023-01-08T19:08:50.658Z,121.47
2023-01-08T19:11:18.290Z,118.20
2023-01-08T19:13:45.284Z,110.50
2023-01-08T19:16:14.010Z,110.50
2023-01-08T19:18:40.984Z,111.03
2023-01-08T19:21:09.845Z,102.80
2023-01-08T19:23:36.758Z,104.50
2023-01-08T19:26:08.008Z,77.87
2023-01-08T19:28:35.098Z,72.20
2023-01-08T19:31:03.028Z,75.07
2023-01-08T19:33:29.998Z,61.73
2023-01-08T19:36:08.765Z,67.00
2023-01-08T19:38:35.792Z,62.53
2023-01-08T19:41:03.435Z,61.17
2023-01-08T19:43:42.294Z,60.07
2023-01-08T19:46:12.016Z,55.03
2023-01-08T19:48:40.372Z,60.87
2023-01-08T19:51:09.019Z,70.90
2023-01-08T19:53:36.078Z,75.80
2023-01-08T19:56:08.224Z,69.63
2023-01-08T19:58:35.275Z,76.40
2023-01-08T20:01:08.799Z,70.73
2023-01-08T20:03:35.726Z,73.87
2023-01-08T20:06:07.757Z,80.07
2023-01-08T20:08:34.722Z,64.97
2023-01-08T20:11:10.530Z,63.80
2023-01-08T20:13:37.892Z,61.80
2023-01-08T20:16:06.919Z,63.50
2023-01-08T20:18:34.579Z,54.60
2023-01-08T20:21:17.105Z,48.17
2023-01-08T20:23:45.188Z,55.80
2023-01-08T20:26:15.387Z,49.33
2023-01-08T20:28:44.416Z,45.30
2023-01-08T20:31:14.914Z,53.92
2023-01-08T20:33:42.700Z,47.87
2023-01-08T20:36:18.905Z,50.50
2023-01-08T20:38:46.495Z,53.53
2023-01-08T20:41:13.642Z,55.53
2023-01-08T20:43:41.168Z,55.50
2023-01-08T20:46:13.986Z,68.23
2023-01-08T20:48:47.674Z,75.40
2023-01-08T20:51:16.076Z,82.97
2023-01-08T20:53:43.388Z,83.27
2023-01-08T20:56:13.155Z,83.33
2023-01-08T20:58:42.487Z,84.03
2023-01-08T21:01:11.247Z,112.25
2023-01-08T21:03:39.587Z,123.00
2023-01-08T21:06:15.758Z,136.90
2023-01-08T21:08:45.542Z,116.03
2023-01-08T21:11:13.607Z,118.53
2023-01-08T21:13:41.214Z,125.87
2023-01-08T21:16:14.475Z,119.87
2023-01-08T21:18:47.186Z,107.43
2023-01-08T21:21:19.517Z,98.93
2023-01-08T21:23:47.776Z,101.60
2023-01-08T21:26:16.084Z,80.70
2023-01-08T21:28:43.918Z,86.43
2023-01-08T21:31:13.846Z,89.50
2023-01-08T21:33:41.378Z,81.13
2023-01-08T21:36:10.891Z,74.37
2023-01-08T21:41:09.019Z,81.17
2023-01-08T21:43:55.005Z,78.00
2023-01-08T21:46:28.074Z,73.70
2023-01-08T21:48:54.890Z,75.53
2023-01-08T21:51:40.452Z,74.80
2023-01-08T21:54:07.277Z,74.20
2023-01-08T21:56:34.307Z,71.53
2023-01-08T21:59:01.228Z,72.90
2023-01-08T22:01:28.369Z,83.10
2023-01-08T22:03:55.230Z,76.50
2023-01-08T22:06:22.129Z,63.93
2023-01-08T22:08:54.267Z,67.07
2023-01-08T22:11:22.479Z,62.97
2023-01-08T22:13:49.536Z,65.20
2023-01-08T22:16:16.462Z,72.47
2023-01-08T22:18:43.290Z,61.60
2023-01-08T22:21:12.603Z,68.83
2023-01-08T22:23:39.723Z,69.72
2023-01-08T22:26:09.462Z,65.77
2023-01-08T22:28:40.118Z,66.67
2023-01-08T22:31:09.612Z,65.40
2023-01-08T22:33:37.708Z,55.97
2023-01-08T22:36:06.438Z,48.97
2023-01-08T22:38:33.529Z,57.90
2023-01-08T22:41:01.069Z,60.77
2023-01-08T22:43:28.510Z,55.97
2023-01-08T22:45:58.306Z,54.73
2023-01-08T22:48:26.017Z,50.27
2023-01-08T22:50:53.617Z,53.17
2023-01-08T22:53:20.693Z,57.73
2023-01-08T22:55:48.224Z,61.17
2023-01-08T22:58:16.615Z,64.07
2023-01-08T23:00:44.423Z,60.07
2023-01-08T23:03:11.511Z,61.73
2023-01-08T23:05:38.372Z,63.63
2023-01-08T23:08:06.506Z,64.90
2023-01-08T23:10:34.023Z,62.00
2023-01-08T23:13:01.110Z,61.90
2023-01-08T23:15:28.022Z,61.47
2023-01-08T23:17:54.914Z,59.20
2023-01-08T23:20:23.417Z,59.53
2023-01-08T23:22:50.313Z,59.60
2023-01-08T23:25:17.230Z,58.73
2023-01-08T23:27:45.009Z,61.33
2023-01-08T23:30:12.475Z,58.73
2023-01-08T23:32:39.981Z,55.10
2023-01-08T23:35:07.287Z,57.57
2023-01-08T23:37:34.883Z,57.17
2023-01-08T23:40:01.886Z,53.37
2023-01-08T23:42:36.416Z,51.33
2023-01-08T23:45:03.398Z,50.40
2023-01-08T23:47:30.277Z,58.70
2023-01-08T23:49:57.223Z,52.73
2023-01-08T23:52:24.065Z,51.27
2023-01-08T23:54:50.878Z,47.43
2023-01-08T23:57:17.718Z,50.20
2023-01-08T23:59:44.582Z,49.20
